sensor_id;sensor_type;location;lat;lon;timestamp;P1;durP1;ratioP1;P2;durP2;ratioP2
11541;SDS011;5827;49.482;7.716;2022-11-03T00:01:34;14.45;;;9.27;;
11541;SDS011;5827;49.482;7.716;2022-11-03T00:03:37;14.52;;;9.05;;
11541;SDS011;5827;49.482;7.716;2022-11-03T00:05:38;14.10;;;8.38;;
11541;SDS011;5827;49.482;7.716;2022-11-03T00:08:06;14.30;;;8.73;;
11541;SDS011;5827;49.482;7.716;2022-11-03T00:10:09;13.55;;;7.88;;
11541;SDS011;5827;49.482;7.716;2022-11-03T00:12:10;14.32;;;9.38;;
11541;SDS011;5827;49.482;7.716;2022-11-03T00:14:12;12.68;;;8.73;;
11541;SDS011;5827;49.482;7.716;2022-11-03T00:16:14;11.45;;;7.70;;
11541;SDS011;5827;49.482;7.716;2022-11-03T00:18:16;13.38;;;7.93;;
11541;SDS011;5827;49.482;7.716;2022-11-03T00:20:17;14.18;;;9.10;;
11541;SDS011;5827;49.482;7.716;2022-11-03T00:22:19;13.15;;;8.18;;
11541;SDS011;5827;49.482;7.716;2022-11-03T00:24:20;12.65;;;7.50;;
11541;SDS011;5827;49.482;7.716;2022-11-03T00:26:24;12.73;;;7.60;;
11541;SDS011;5827;49.482;7.716;2022-11-03T00:28:28;10.25;;;7.13;;
11541;SDS011;5827;49.482;7.716;2022-11-03T00:30:31;11.93;;;7.22;;
11541;SDS011;5827;49.482;7.716;2022-11-03T00:32:32;11.20;;;7.15;;
11541;SDS011;5827;49.482;7.716;2022-11-03T00:34:34;11.68;;;7.38;;
11541;SDS011;5827;49.482;7.716;2022-11-03T00:36:36;10.95;;;7.47;;
11541;SDS011;5827;49.482;7.716;2022-11-03T00:38:38;13.25;;;7.53;;
11541;SDS011;5827;49.482;7.716;2022-11-03T00:40:40;10.13;;;7.22;;
11541;SDS011;5827;49.482;7.716;2022-11-03T00:42:43;10.50;;;7.53;;
11541;SDS011;5827;49.482;7.716;2022-11-03T00:44:45;11.48;;;7.10;;
11541;SDS011;5827;49.482;7.716;2022-11-03T00:46:46;10.07;;;7.10;;
11541;SDS011;5827;49.482;7.716;2022-11-03T00:48:48;10.73;;;6.75;;
11541;SDS011;5827;49.482;7.716;2022-11-03T00:50:50;10.23;;;6.85;;
11541;SDS011;5827;49.482;7.716;2022-11-03T00:52:52;10.55;;;6.85;;
11541;SDS011;5827;49.482;7.716;2022-11-03T00:54:53;11.32;;;6.78;;
11541;SDS011;5827;49.482;7.716;2022-11-03T00:56:55;9.55;;;6.82;;
11541;SDS011;5827;49.482;7.716;2022-11-03T00:58:58;10.90;;;7.60;;
11541;SDS011;5827;49.482;7.716;2022-11-03T01:01:02;10.73;;;7.32;;
11541;SDS011;5827;49.482;7.716;2022-11-03T01:03:06;11.82;;;8.10;;
11541;SDS011;5827;49.482;7.716;2022-11-03T01:05:08;9.45;;;7.47;;
11541;SDS011;5827;49.482;7.716;2022-11-03T01:07:27;10.00;;;6.80;;
11541;SDS011;5827;49.482;7.716;2022-11-03T01:09:29;10.55;;;6.40;;
11541;SDS011;5827;49.482;7.716;2022-11-03T01:11:34;13.75;;;7.10;;
11541;SDS011;5827;49.482;7.716;2022-11-03T01:13:43;10.32;;;7.05;;
11541;SDS011;5827;49.482;7.716;2022-11-03T01:15:48;11.07;;;8.20;;
11541;SDS011;5827;49.482;7.716;2022-11-03T01:17:49;12.15;;;7.88;;
11541;SDS011;5827;49.482;7.716;2022-11-03T01:19:51;11.50;;;7.50;;
11541;SDS011;5827;49.482;7.716;2022-11-03T01:21:53;9.90;;;7.53;;
11541;SDS011;5827;49.482;7.716;2022-11-03T01:23:54;11.43;;;7.77;;
11541;SDS011;5827;49.482;7.716;2022-11-03T01:25:56;11.43;;;7.55;;
11541;SDS011;5827;49.482;7.716;2022-11-03T01:27:57;11.30;;;7.50;;
11541;SDS011;5827;49.482;7.716;2022-11-03T01:29:59;11.20;;;7.13;;
11541;SDS011;5827;49.482;7.716;2022-11-03T01:32:02;10.55;;;7.25;;
11541;SDS011;5827;49.482;7.716;2022-11-03T01:34:04;11.13;;;6.83;;
11541;SDS011;5827;49.482;7.716;2022-11-03T01:36:05;10.85;;;6.72;;
11541;SDS011;5827;49.482;7.716;2022-11-03T01:38:08;8.35;;;6.30;;
11541;SDS011;5827;49.482;7.716;2022-11-03T01:40:10;12.33;;;6.93;;
11541;SDS011;5827;49.482;7.716;2022-11-03T01:42:12;11.55;;;7.25;;
11541;SDS011;5827;49.482;7.716;2022-11-03T01:44:23;10.88;;;7.60;;
11541;SDS011;5827;49.482;7.716;2022-11-03T01:46:29;11.77;;;8.43;;
11541;SDS011;5827;49.482;7.716;2022-11-03T01:48:32;11.25;;;7.93;;
11541;SDS011;5827;49.482;7.716;2022-11-03T01:50:35;12.02;;;7.88;;
11541;SDS011;5827;49.482;7.716;2022-11-03T01:52:37;11.35;;;7.10;;
11541;SDS011;5827;49.482;7.716;2022-11-03T01:54:43;8.95;;;6.82;;
11541;SDS011;5827;49.482;7.716;2022-11-03T01:56:48;12.73;;;7.25;;
11541;SDS011;5827;49.482;7.716;2022-11-03T01:58:51;9.83;;;6.43;;
11541;SDS011;5827;49.482;7.716;2022-11-03T02:00:55;9.20;;;6.30;;
11541;SDS011;5827;49.482;7.716;2022-11-03T02:02:58;10.45;;;6.22;;
11541;SDS011;5827;49.482;7.716;2022-11-03T02:05:01;10.50;;;6.22;;
11541;SDS011;5827;49.482;7.716;2022-11-03T02:07:07;11.38;;;6.50;;
11541;SDS011;5827;49.482;7.716;2022-11-03T02:09:14;10.25;;;6.43;;
11541;SDS011;5827;49.482;7.716;2022-11-03T02:11:16;9.10;;;6.47;;
11541;SDS011;5827;49.482;7.716;2022-11-03T02:13:35;8.67;;;6.53;;
11541;SDS011;5827;49.482;7.716;2022-11-03T02:15:37;8.43;;;6.05;;
11541;SDS011;5827;49.482;7.716;2022-11-03T02:17:40;8.40;;;6.22;;
11541;SDS011;5827;49.482;7.716;2022-11-03T02:19:44;9.13;;;6.30;;
11541;SDS011;5827;49.482;7.716;2022-11-03T02:21:54;9.82;;;6.45;;
11541;SDS011;5827;49.482;7.716;2022-11-03T02:24:00;9.13;;;6.20;;
11541;SDS011;5827;49.482;7.716;2022-11-03T02:26:11;8.80;;;6.00;;
11541;SDS011;5827;49.482;7.716;2022-11-03T02:28:16;9.15;;;5.45;;
11541;SDS011;5827;49.482;7.716;2022-11-03T02:30:19;8.93;;;5.90;;
11541;SDS011;5827;49.482;7.716;2022-11-03T02:32:21;6.82;;;5.78;;
11541;SDS011;5827;49.482;7.716;2022-11-03T02:34:26;9.15;;;6.60;;
11541;SDS011;5827;49.482;7.716;2022-11-03T02:36:36;8.20;;;6.10;;
11541;SDS011;5827;49.482;7.716;2022-11-03T02:38:44;8.48;;;6.18;;
11541;SDS011;5827;49.482;7.716;2022-11-03T02:40:49;8.93;;;7.35;;
11541;SDS011;5827;49.482;7.716;2022-11-03T02:42:55;13.45;;;8.77;;
11541;SDS011;5827;49.482;7.716;2022-11-03T02:44:59;10.48;;;8.45;;
11541;SDS011;5827;49.482;7.716;2022-11-03T02:47:08;12.27;;;8.20;;
11541;SDS011;5827;49.482;7.716;2022-11-03T02:49:11;10.85;;;8.27;;
11541;SDS011;5827;49.482;7.716;2022-11-03T02:51:13;10.57;;;7.10;;
11541;SDS011;5827;49.482;7.716;2022-11-03T02:53:14;9.13;;;6.82;;
11541;SDS011;5827;49.482;7.716;2022-11-03T02:55:17;9.88;;;6.78;;
11541;SDS011;5827;49.482;7.716;2022-11-03T02:57:26;9.23;;;6.40;;
11541;SDS011;5827;49.482;7.716;2022-11-03T02:59:35;9.57;;;6.80;;
11541;SDS011;5827;49.482;7.716;2022-11-03T03:01:41;10.13;;;7.47;;
11541;SDS011;5827;49.482;7.716;2022-11-03T03:03:52;9.75;;;6.80;;
11541;SDS011;5827;49.482;7.716;2022-11-03T03:05:59;11.45;;;7.00;;
11541;SDS011;5827;49.482;7.716;2022-11-03T03:08:06;10.30;;;6.60;;
11541;SDS011;5827;49.482;7.716;2022-11-03T03:10:13;12.45;;;6.75;;
11541;SDS011;5827;49.482;7.716;2022-11-03T03:12:17;12.30;;;6.80;;
11541;SDS011;5827;49.482;7.716;2022-11-03T03:14:21;11.27;;;6.78;;
11541;SDS011;5827;49.482;7.716;2022-11-03T03:16:27;10.30;;;6.65;;
11541;SDS011;5827;49.482;7.716;2022-11-03T03:18:39;11.15;;;6.30;;
11541;SDS011;5827;49.482;7.716;2022-11-03T03:20:50;8.87;;;6.17;;
11541;SDS011;5827;49.482;7.716;2022-11-03T03:22:56;9.50;;;6.45;;
11541;SDS011;5827;49.482;7.716;2022-11-03T03:25:02;10.13;;;6.57;;
11541;SDS011;5827;49.482;7.716;2022-11-03T03:27:09;10.20;;;6.47;;
11541;SDS011;5827;49.482;7.716;2022-11-03T03:29:14;11.85;;;6.88;;
11541;SDS011;5827;49.482;7.716;2022-11-03T03:31:20;10.35;;;5.95;;
11541;SDS011;5827;49.482;7.716;2022-11-03T03:33:27;11.60;;;5.97;;
11541;SDS011;5827;49.482;7.716;2022-11-03T03:35:31;11.60;;;6.40;;
11541;SDS011;5827;49.482;7.716;2022-11-03T03:37:34;10.30;;;6.43;;
11541;SDS011;5827;49.482;7.716;2022-11-03T03:39:39;9.60;;;6.15;;
11541;SDS011;5827;49.482;7.716;2022-11-03T03:41:45;8.93;;;5.97;;
11541;SDS011;5827;49.482;7.716;2022-11-03T03:43:48;10.57;;;6.40;;
11541;SDS011;5827;49.482;7.716;2022-11-03T03:45:53;10.60;;;6.70;;
11541;SDS011;5827;49.482;7.716;2022-11-03T03:47:58;10.98;;;6.45;;
11541;SDS011;5827;49.482;7.716;2022-11-03T03:50:01;8.88;;;6.25;;
11541;SDS011;5827;49.482;7.716;2022-11-03T03:52:03;10.27;;;6.63;;
11541;SDS011;5827;49.482;7.716;2022-11-03T03:54:05;11.20;;;6.68;;
11541;SDS011;5827;49.482;7.716;2022-11-03T03:56:07;9.05;;;6.35;;
11541;SDS011;5827;49.482;7.716;2022-11-03T03:58:09;12.90;;;6.72;;
11541;SDS011;5827;49.482;7.716;2022-11-03T04:00:15;8.93;;;6.22;;
11541;SDS011;5827;49.482;7.716;2022-11-03T04:02:18;9.10;;;6.15;;
11541;SDS011;5827;49.482;7.716;2022-11-03T04:04:20;10.30;;;6.57;;
11541;SDS011;5827;49.482;7.716;2022-11-03T04:06:23;10.00;;;6.28;;
11541;SDS011;5827;49.482;7.716;2022-11-03T04:08:24;11.10;;;6.20;;
11541;SDS011;5827;49.482;7.716;2022-11-03T04:10:26;10.40;;;6.60;;
11541;SDS011;5827;49.482;7.716;2022-11-03T04:12:27;10.57;;;6.20;;
11541;SDS011;5827;49.482;7.716;2022-11-03T04:14:46;11.55;;;6.90;;
11541;SDS011;5827;49.482;7.716;2022-11-03T04:17:08;10.65;;;6.78;;
11541;SDS011;5827;49.482;7.716;2022-11-03T04:19:36;9.18;;;6.35;;
11541;SDS011;5827;49.482;7.716;2022-11-03T04:21:57;11.13;;;6.25;;
11541;SDS011;5827;49.482;7.716;2022-11-03T04:24:16;11.07;;;6.32;;
11541;SDS011;5827;49.482;7.716;2022-11-03T04:26:18;10.43;;;6.30;;
11541;SDS011;5827;49.482;7.716;2022-11-03T04:28:23;9.25;;;6.18;;
11541;SDS011;5827;49.482;7.716;2022-11-03T04:30:26;10.48;;;6.15;;
11541;SDS011;5827;49.482;7.716;2022-11-03T04:32:27;11.85;;;6.68;;
11541;SDS011;5827;49.482;7.716;2022-11-03T04:34:30;10.63;;;6.20;;
11541;SDS011;5827;49.482;7.716;2022-11-03T04:36:31;9.80;;;6.00;;
11541;SDS011;5827;49.482;7.716;2022-11-03T04:38:35;8.43;;;5.93;;
11541;SDS011;5827;49.482;7.716;2022-11-03T04:40:37;12.10;;;6.30;;
11541;SDS011;5827;49.482;7.716;2022-11-03T04:42:41;7.88;;;5.80;;
11541;SDS011;5827;49.482;7.716;2022-11-03T04:44:44;9.00;;;5.67;;
11541;SDS011;5827;49.482;7.716;2022-11-03T04:46:46;8.90;;;5.60;;
11541;SDS011;5827;49.482;7.716;2022-11-03T04:48:47;9.82;;;6.25;;
11541;SDS011;5827;49.482;7.716;2022-11-03T04:50:51;9.18;;;5.63;;
11541;SDS011;5827;49.482;7.716;2022-11-03T04:52:55;8.18;;;5.22;;
11541;SDS011;5827;49.482;7.716;2022-11-03T04:54:59;9.02;;;5.20;;
11541;SDS011;5827;49.482;7.716;2022-11-03T04:57:03;7.07;;;4.70;;
11541;SDS011;5827;49.482;7.716;2022-11-03T04:59:09;7.63;;;5.18;;
11541;SDS011;5827;49.482;7.716;2022-11-03T05:01:13;8.57;;;4.70;;
11541;SDS011;5827;49.482;7.716;2022-11-03T05:03:19;9.98;;;5.03;;
11541;SDS011;5827;49.482;7.716;2022-11-03T05:05:23;9.10;;;5.03;;
11541;SDS011;5827;49.482;7.716;2022-11-03T05:07:27;9.98;;;5.30;;
11541;SDS011;5827;49.482;7.716;2022-11-03T05:09:33;10.07;;;5.67;;
11541;SDS011;5827;49.482;7.716;2022-11-03T05:11:36;10.48;;;5.32;;
11541;SDS011;5827;49.482;7.716;2022-11-03T05:13:39;8.20;;;5.10;;
11541;SDS011;5827;49.482;7.716;2022-11-03T05:15:41;9.38;;;4.90;;
11541;SDS011;5827;49.482;7.716;2022-11-03T05:17:44;8.63;;;5.20;;
11541;SDS011;5827;49.482;7.716;2022-11-03T05:19:46;10.83;;;5.20;;
11541;SDS011;5827;49.482;7.716;2022-11-03T05:21:48;10.45;;;5.72;;
11541;SDS011;5827;49.482;7.716;2022-11-03T05:23:51;11.15;;;5.80;;
11541;SDS011;5827;49.482;7.716;2022-11-03T05:25:56;8.20;;;5.55;;
11541;SDS011;5827;49.482;7.716;2022-11-03T05:28:00;9.10;;;5.82;;
11541;SDS011;5827;49.482;7.716;2022-11-03T05:30:02;9.13;;;5.63;;
11541;SDS011;5827;49.482;7.716;2022-11-03T05:32:09;9.25;;;6.15;;
11541;SDS011;5827;49.482;7.716;2022-11-03T05:34:20;8.68;;;5.93;;
11541;SDS011;5827;49.482;7.716;2022-11-03T05:36:31;8.65;;;5.95;;
11541;SDS011;5827;49.482;7.716;2022-11-03T05:38:33;9.50;;;5.45;;
11541;SDS011;5827;49.482;7.716;2022-11-03T05:40:35;8.73;;;5.50;;
11541;SDS011;5827;49.482;7.716;2022-11-03T05:42:36;8.10;;;5.60;;
11541;SDS011;5827;49.482;7.716;2022-11-03T05:44:43;7.93;;;5.47;;
11541;SDS011;5827;49.482;7.716;2022-11-03T05:46:45;9.10;;;5.80;;
11541;SDS011;5827;49.482;7.716;2022-11-03T05:48:47;8.68;;;5.43;;
11541;SDS011;5827;49.482;7.716;2022-11-03T05:50:49;8.25;;;5.70;;
11541;SDS011;5827;49.482;7.716;2022-11-03T05:52:52;9.60;;;6.13;;
11541;SDS011;5827;49.482;7.716;2022-11-03T05:54:57;8.63;;;5.80;;
11541;SDS011;5827;49.482;7.716;2022-11-03T05:57:00;9.40;;;7.03;;
11541;SDS011;5827;49.482;7.716;2022-11-03T05:59:01;11.95;;;9.70;;
11541;SDS011;5827;49.482;7.716;2022-11-03T06:01:09;10.27;;;8.25;;
11541;SDS011;5827;49.482;7.716;2022-11-03T06:03:14;12.13;;;9.30;;
11541;SDS011;5827;49.482;7.716;2022-11-03T06:05:20;12.27;;;9.23;;
11541;SDS011;5827;49.482;7.716;2022-11-03T06:07:23;10.63;;;8.23;;
11541;SDS011;5827;49.482;7.716;2022-11-03T06:09:26;9.90;;;7.60;;
11541;SDS011;5827;49.482;7.716;2022-11-03T06:11:30;10.20;;;7.07;;
11541;SDS011;5827;49.482;7.716;2022-11-03T06:13:34;10.80;;;6.70;;
11541;SDS011;5827;49.482;7.716;2022-11-03T06:15:37;11.57;;;7.20;;
11541;SDS011;5827;49.482;7.716;2022-11-03T06:17:40;9.50;;;6.70;;
11541;SDS011;5827;49.482;7.716;2022-11-03T06:19:43;9.00;;;6.80;;
11541;SDS011;5827;49.482;7.716;2022-11-03T06:21:48;8.27;;;6.30;;
11541;SDS011;5827;49.482;7.716;2022-11-03T06:23:51;10.07;;;6.75;;
11541;SDS011;5827;49.482;7.716;2022-11-03T06:25:54;8.65;;;6.40;;
11541;SDS011;5827;49.482;7.716;2022-11-03T06:27:58;9.82;;;5.97;;
11541;SDS011;5827;49.482;7.716;2022-11-03T06:30:04;8.45;;;5.95;;
11541;SDS011;5827;49.482;7.716;2022-11-03T06:32:20;9.07;;;5.80;;
11541;SDS011;5827;49.482;7.716;2022-11-03T06:34:27;10.25;;;6.10;;
11541;SDS011;5827;49.482;7.716;2022-11-03T06:36:37;9.03;;;5.37;;
11541;SDS011;5827;49.482;7.716;2022-11-03T06:38:39;8.75;;;5.90;;
11541;SDS011;5827;49.482;7.716;2022-11-03T06:40:40;8.20;;;6.10;;
11541;SDS011;5827;49.482;7.716;2022-11-03T06:42:42;8.85;;;6.28;;
11541;SDS011;5827;49.482;7.716;2022-11-03T06:44:44;11.07;;;6.93;;
11541;SDS011;5827;49.482;7.716;2022-11-03T06:46:47;13.13;;;7.43;;
11541;SDS011;5827;49.482;7.716;2022-11-03T06:48:49;10.23;;;7.10;;
11541;SDS011;5827;49.482;7.716;2022-11-03T06:50:54;14.75;;;8.63;;
11541;SDS011;5827;49.482;7.716;2022-11-03T06:52:58;12.30;;;8.30;;
11541;SDS011;5827;49.482;7.716;2022-11-03T06:55:23;15.30;;;8.00;;
11541;SDS011;5827;49.482;7.716;2022-11-03T06:57:26;12.73;;;8.13;;
11541;SDS011;5827;49.482;7.716;2022-11-03T06:59:34;12.68;;;7.68;;
11541;SDS011;5827;49.482;7.716;2022-11-03T07:01:35;12.52;;;7.50;;
11541;SDS011;5827;49.482;7.716;2022-11-03T07:03:37;14.18;;;8.05;;
11541;SDS011;5827;49.482;7.716;2022-11-03T07:05:39;12.65;;;7.72;;
11541;SDS011;5827;49.482;7.716;2022-11-03T07:07:43;12.53;;;7.63;;
11541;SDS011;5827;49.482;7.716;2022-11-03T07:09:44;14.32;;;7.68;;
11541;SDS011;5827;49.482;7.716;2022-11-03T07:11:47;11.82;;;6.97;;
11541;SDS011;5827;49.482;7.716;2022-11-03T07:13:51;11.85;;;6.72;;
11541;SDS011;5827;49.482;7.716;2022-11-03T07:15:54;10.90;;;6.93;;
11541;SDS011;5827;49.482;7.716;2022-11-03T07:17:55;12.23;;;7.13;;
11541;SDS011;5827;49.482;7.716;2022-11-03T07:19:57;12.73;;;6.82;;
11541;SDS011;5827;49.482;7.716;2022-11-03T07:21:59;12.57;;;7.20;;
11541;SDS011;5827;49.482;7.716;2022-11-03T07:24:11;9.60;;;7.00;;
11541;SDS011;5827;49.482;7.716;2022-11-03T07:26:16;13.13;;;8.00;;
11541;SDS011;5827;49.482;7.716;2022-11-03T07:28:19;15.68;;;8.73;;
11541;SDS011;5827;49.482;7.716;2022-11-03T07:30:22;12.90;;;8.52;;
11541;SDS011;5827;49.482;7.716;2022-11-03T07:32:27;17.27;;;8.32;;
11541;SDS011;5827;49.482;7.716;2022-11-03T07:34:31;12.20;;;8.20;;
11541;SDS011;5827;49.482;7.716;2022-11-03T07:36:33;11.38;;;7.68;;
11541;SDS011;5827;49.482;7.716;2022-11-03T07:38:35;13.88;;;8.48;;
11541;SDS011;5827;49.482;7.716;2022-11-03T07:40:40;10.48;;;7.50;;
11541;SDS011;5827;49.482;7.716;2022-11-03T07:42:42;10.63;;;7.13;;
11541;SDS011;5827;49.482;7.716;2022-11-03T07:44:44;9.52;;;7.38;;
11541;SDS011;5827;49.482;7.716;2022-11-03T07:46:46;9.35;;;6.63;;
11541;SDS011;5827;49.482;7.716;2022-11-03T07:48:50;11.32;;;6.80;;
11541;SDS011;5827;49.482;7.716;2022-11-03T07:50:55;14.73;;;7.38;;
11541;SDS011;5827;49.482;7.716;2022-11-03T07:52:58;13.95;;;7.18;;
11541;SDS011;5827;49.482;7.716;2022-11-03T07:55:00;11.27;;;6.93;;
11541;SDS011;5827;49.482;7.716;2022-11-03T07:57:04;11.25;;;6.85;;
11541;SDS011;5827;49.482;7.716;2022-11-03T07:59:12;10.90;;;7.25;;
11541;SDS011;5827;49.482;7.716;2022-11-03T08:01:25;10.52;;;7.45;;
11541;SDS011;5827;49.482;7.716;2022-11-03T08:03:42;14.07;;;7.37;;
11541;SDS011;5827;49.482;7.716;2022-11-03T08:05:46;12.15;;;7.78;;
11541;SDS011;5827;49.482;7.716;2022-11-03T08:07:47;10.38;;;7.45;;
11541;SDS011;5827;49.482;7.716;2022-11-03T08:09:49;10.57;;;7.22;;
11541;SDS011;5827;49.482;7.716;2022-11-03T08:11:51;14.50;;;7.63;;
11541;SDS011;5827;49.482;7.716;2022-11-03T08:13:54;12.95;;;7.55;;
11541;SDS011;5827;49.482;7.716;2022-11-03T08:15:56;11.30;;;7.18;;
11541;SDS011;5827;49.482;7.716;2022-11-03T08:17:58;11.75;;;6.78;;
11541;SDS011;5827;49.482;7.716;2022-11-03T08:19:59;10.73;;;6.82;;
11541;SDS011;5827;49.482;7.716;2022-11-03T08:22:01;9.43;;;7.15;;
11541;SDS011;5827;49.482;7.716;2022-11-03T08:24:03;12.93;;;7.57;;
11541;SDS011;5827;49.482;7.716;2022-11-03T08:26:05;10.90;;;7.90;;
11541;SDS011;5827;49.482;7.716;2022-11-03T08:28:07;12.23;;;7.57;;
11541;SDS011;5827;49.482;7.716;2022-11-03T08:30:11;10.98;;;7.63;;
11541;SDS011;5827;49.482;7.716;2022-11-03T08:32:13;10.93;;;7.25;;
11541;SDS011;5827;49.482;7.716;2022-11-03T08:34:14;11.52;;;7.20;;
11541;SDS011;5827;49.482;7.716;2022-11-03T08:36:16;13.45;;;7.60;;
11541;SDS011;5827;49.482;7.716;2022-11-03T08:38:19;12.18;;;7.30;;
11541;SDS011;5827;49.482;7.716;2022-11-03T08:40:20;11.13;;;6.75;;
11541;SDS011;5827;49.482;7.716;2022-11-03T08:42:22;10.90;;;6.68;;
11541;SDS011;5827;49.482;7.716;2022-11-03T08:44:23;9.02;;;6.53;;
11541;SDS011;5827;49.482;7.716;2022-11-03T08:46:26;11.23;;;6.68;;
11541;SDS011;5827;49.482;7.716;2022-11-03T08:48:28;9.43;;;6.90;;
11541;SDS011;5827;49.482;7.716;2022-11-03T08:50:30;8.65;;;6.60;;
11541;SDS011;5827;49.482;7.716;2022-11-03T08:52:31;12.77;;;7.78;;
11541;SDS011;5827;49.482;7.716;2022-11-03T08:54:33;10.38;;;6.95;;
11541;SDS011;5827;49.482;7.716;2022-11-03T08:56:34;9.18;;;6.32;;
11541;SDS011;5827;49.482;7.716;2022-11-03T08:58:36;11.23;;;6.65;;
11541;SDS011;5827;49.482;7.716;2022-11-03T09:00:39;9.35;;;6.10;;
11541;SDS011;5827;49.482;7.716;2022-11-03T09:02:42;13.23;;;6.50;;
11541;SDS011;5827;49.482;7.716;2022-11-03T09:04:43;9.25;;;5.85;;
11541;SDS011;5827;49.482;7.716;2022-11-03T09:06:45;11.77;;;6.57;;
11541;SDS011;5827;49.482;7.716;2022-11-03T09:08:47;12.13;;;6.60;;
11541;SDS011;5827;49.482;7.716;2022-11-03T09:10:48;10.90;;;6.38;;
11541;SDS011;5827;49.482;7.716;2022-11-03T09:12:50;13.43;;;6.22;;
11541;SDS011;5827;49.482;7.716;2022-11-03T09:14:51;9.10;;;6.70;;
11541;SDS011;5827;49.482;7.716;2022-11-03T09:16:53;8.48;;;5.70;;
11541;SDS011;5827;49.482;7.716;2022-11-03T09:18:56;10.85;;;5.97;;
11541;SDS011;5827;49.482;7.716;2022-11-03T09:20:57;9.60;;;6.38;;
11541;SDS011;5827;49.482;7.716;2022-11-03T09:22:59;12.32;;;6.53;;
11541;SDS011;5827;49.482;7.716;2022-11-03T09:25:00;10.30;;;6.28;;
11541;SDS011;5827;49.482;7.716;2022-11-03T09:27:02;11.25;;;6.63;;
11541;SDS011;5827;49.482;7.716;2022-11-03T09:29:04;10.15;;;6.32;;
11541;SDS011;5827;49.482;7.716;2022-11-03T09:31:05;11.55;;;6.40;;
11541;SDS011;5827;49.482;7.716;2022-11-03T09:33:07;12.82;;;6.72;;
11541;SDS011;5827;49.482;7.716;2022-11-03T09:35:10;12.43;;;6.35;;
11541;SDS011;5827;49.482;7.716;2022-11-03T09:37:13;10.07;;;5.90;;
11541;SDS011;5827;49.482;7.716;2022-11-03T09:39:15;10.60;;;6.45;;
11541;SDS011;5827;49.482;7.716;2022-11-03T09:41:17;9.70;;;5.78;;
11541;SDS011;5827;49.482;7.716;2022-11-03T09:43:18;10.27;;;6.20;;
11541;SDS011;5827;49.482;7.716;2022-11-03T09:45:20;10.82;;;6.07;;
11541;SDS011;5827;49.482;7.716;2022-11-03T09:47:22;10.65;;;6.70;;
11541;SDS011;5827;49.482;7.716;2022-11-03T09:49:29;9.60;;;6.10;;
11541;SDS011;5827;49.482;7.716;2022-11-03T09:51:34;12.05;;;6.63;;
11541;SDS011;5827;49.482;7.716;2022-11-03T09:53:36;10.10;;;6.30;;
11541;SDS011;5827;49.482;7.716;2022-11-03T09:55:38;13.15;;;6.97;;
11541;SDS011;5827;49.482;7.716;2022-11-03T09:57:41;11.88;;;6.75;;
11541;SDS011;5827;49.482;7.716;2022-11-03T09:59:43;15.27;;;6.80;;
11541;SDS011;5827;49.482;7.716;2022-11-03T10:01:47;11.40;;;6.43;;
11541;SDS011;5827;49.482;7.716;2022-11-03T10:03:50;10.73;;;6.68;;
11541;SDS011;5827;49.482;7.716;2022-11-03T10:05:52;10.50;;;6.50;;
11541;SDS011;5827;49.482;7.716;2022-11-03T10:07:55;11.30;;;6.60;;
11541;SDS011;5827;49.482;7.716;2022-11-03T10:10:00;10.10;;;6.18;;
11541;SDS011;5827;49.482;7.716;2022-11-03T10:12:02;10.35;;;6.25;;
11541;SDS011;5827;49.482;7.716;2022-11-03T10:14:04;8.18;;;6.13;;
11541;SDS011;5827;49.482;7.716;2022-11-03T10:16:08;14.90;;;6.55;;
11541;SDS011;5827;49.482;7.716;2022-11-03T10:18:12;10.77;;;6.88;;
11541;SDS011;5827;49.482;7.716;2022-11-03T10:20:16;9.75;;;5.95;;
11541;SDS011;5827;49.482;7.716;2022-11-03T10:22:19;10.80;;;5.95;;
11541;SDS011;5827;49.482;7.716;2022-11-03T10:24:23;9.13;;;6.05;;
11541;SDS011;5827;49.482;7.716;2022-11-03T10:26:25;8.85;;;6.15;;
11541;SDS011;5827;49.482;7.716;2022-11-03T10:28:28;9.50;;;5.60;;
11541;SDS011;5827;49.482;7.716;2022-11-03T10:30:29;10.00;;;6.00;;
11541;SDS011;5827;49.482;7.716;2022-11-03T10:32:31;10.40;;;5.97;;
11541;SDS011;5827;49.482;7.716;2022-11-03T10:34:34;9.98;;;5.97;;
11541;SDS011;5827;49.482;7.716;2022-11-03T10:36:36;9.07;;;6.15;;
11541;SDS011;5827;49.482;7.716;2022-11-03T10:38:38;11.40;;;6.90;;
11541;SDS011;5827;49.482;7.716;2022-11-03T10:40:41;9.82;;;6.10;;
11541;SDS011;5827;49.482;7.716;2022-11-03T10:42:42;8.88;;;6.40;;
11541;SDS011;5827;49.482;7.716;2022-11-03T10:45:08;10.30;;;5.70;;
11541;SDS011;5827;49.482;7.716;2022-11-03T10:47:21;8.65;;;5.40;;
11541;SDS011;5827;49.482;7.716;2022-11-03T10:49:24;9.82;;;5.55;;
11541;SDS011;5827;49.482;7.716;2022-11-03T10:51:27;9.10;;;5.80;;
11541;SDS011;5827;49.482;7.716;2022-11-03T10:53:29;8.63;;;5.78;;
11541;SDS011;5827;49.482;7.716;2022-11-03T10:55:31;11.23;;;5.13;;
11541;SDS011;5827;49.482;7.716;2022-11-03T10:57:34;8.50;;;5.15;;
11541;SDS011;5827;49.482;7.716;2022-11-03T10:59:36;8.25;;;5.10;;
11541;SDS011;5827;49.482;7.716;2022-11-03T11:01:39;10.25;;;5.35;;
11541;SDS011;5827;49.482;7.716;2022-11-03T11:03:41;9.27;;;6.30;;
11541;SDS011;5827;49.482;7.716;2022-11-03T11:05:44;11.38;;;7.28;;
11541;SDS011;5827;49.482;7.716;2022-11-03T11:07:46;13.57;;;7.88;;
11541;SDS011;5827;49.482;7.716;2022-11-03T11:09:50;13.30;;;8.18;;
11541;SDS011;5827;49.482;7.716;2022-11-03T11:11:59;10.70;;;7.57;;
11541;SDS011;5827;49.482;7.716;2022-11-03T11:14:22;11.63;;;6.95;;
11541;SDS011;5827;49.482;7.716;2022-11-03T11:16:46;11.10;;;6.40;;
11541;SDS011;5827;49.482;7.716;2022-11-03T11:23:44;10.23;;;6.57;;
11541;SDS011;5827;49.482;7.716;2022-11-03T11:26:05;8.50;;;6.10;;
11541;SDS011;5827;49.482;7.716;2022-11-03T11:28:16;8.60;;;4.60;;
11541;SDS011;5827;49.482;7.716;2022-11-03T11:33:12;4.40;;;3.00;;
11541;SDS011;5827;49.482;7.716;2022-11-03T11:35:16;8.73;;;3.83;;
11541;SDS011;5827;49.482;7.716;2022-11-03T11:37:31;4.63;;;2.90;;
11541;SDS011;5827;49.482;7.716;2022-11-03T11:39:44;6.67;;;4.13;;
11541;SDS011;5827;49.482;7.716;2022-11-03T11:46:52;5.83;;;2.83;;
11541;SDS011;5827;49.482;7.716;2022-11-03T11:49:10;8.60;;;3.33;;
11541;SDS011;5827;49.482;7.716;2022-11-03T11:51:17;6.93;;;4.17;;
11541;SDS011;5827;49.482;7.716;2022-11-03T11:53:19;6.50;;;3.57;;
11541;SDS011;5827;49.482;7.716;2022-11-03T11:55:25;3.57;;;2.30;;
11541;SDS011;5827;49.482;7.716;2022-11-03T11:57:32;4.47;;;2.30;;
11541;SDS011;5827;49.482;7.716;2022-11-03T11:59:35;7.20;;;2.60;;
11541;SDS011;5827;49.482;7.716;2022-11-03T12:01:36;30.70;;;10.37;;
11541;SDS011;5827;49.482;7.716;2022-11-03T12:03:40;39.10;;;10.33;;
11541;SDS011;5827;49.482;7.716;2022-11-03T12:05:47;16.47;;;7.17;;
11541;SDS011;5827;49.482;7.716;2022-11-03T12:07:49;13.53;;;5.20;;
11541;SDS011;5827;49.482;7.716;2022-11-03T12:09:51;4.23;;;2.43;;
11541;SDS011;5827;49.482;7.716;2022-11-03T12:11:54;14.67;;;5.00;;
11541;SDS011;5827;49.482;7.716;2022-11-03T12:13:57;3.00;;;2.30;;
11541;SDS011;5827;49.482;7.716;2022-11-03T12:15:58;12.67;;;5.20;;
11541;SDS011;5827;49.482;7.716;2022-11-03T12:20:33;15.93;;;6.20;;
11541;SDS011;5827;49.482;7.716;2022-11-03T12:22:40;6.80;;;3.00;;
11541;SDS011;5827;49.482;7.716;2022-11-03T12:24:46;4.23;;;2.70;;
11541;SDS011;5827;49.482;7.716;2022-11-03T12:26:50;4.67;;;2.70;;
11541;SDS011;5827;49.482;7.716;2022-11-03T12:28:51;3.47;;;2.20;;
11541;SDS011;5827;49.482;7.716;2022-11-03T12:30:53;4.70;;;2.57;;
11541;SDS011;5827;49.482;7.716;2022-11-03T12:32:54;5.60;;;2.50;;
11541;SDS011;5827;49.482;7.716;2022-11-03T12:34:56;5.40;;;2.30;;
11541;SDS011;5827;49.482;7.716;2022-11-03T12:36:58;4.43;;;2.53;;
11541;SDS011;5827;49.482;7.716;2022-11-03T12:39:01;4.07;;;2.63;;
11541;SDS011;5827;49.482;7.716;2022-11-03T12:41:03;2.70;;;1.90;;
11541;SDS011;5827;49.482;7.716;2022-11-03T12:43:18;3.33;;;2.10;;
11541;SDS011;5827;49.482;7.716;2022-11-03T12:45:20;4.17;;;2.43;;
11541;SDS011;5827;49.482;7.716;2022-11-03T12:47:21;5.27;;;2.10;;
11541;SDS011;5827;49.482;7.716;2022-11-03T12:49:23;2.87;;;2.10;;